sensor_id;sensor_type;location;lat;lon;timestamp;temperature;humidity
46181;DHT22;58963;50.438;30.594;2022-09-27T00:00:05;12.10;99.90
46181;DHT22;58963;50.438;30.594;2022-09-27T00:05:25;12.10;99.90
46181;DHT22;58963;50.438;30.594;2022-09-27T00:10:44;12.00;99.90
46181;DHT22;58963;50.438;30.594;2022-09-27T00:16:03;12.00;99.90
46181;DHT22;58963;50.438;30.594;2022-09-27T00:21:23;12.10;99.90
46181;DHT22;58963;50.438;30.594;2022-09-27T00:26:42;12.10;99.90
46181;DHT22;58963;50.438;30.594;2022-09-27T00:32:02;11.90;99.90
46181;DHT22;58963;50.438;30.594;2022-09-27T00:37:21;11.90;99.90
46181;DHT22;58963;50.438;30.594;2022-09-27T00:42:40;11.80;99.90
46181;DHT22;58963;50.438;30.594;2022-09-27T00:48:03;11.80;99.90
46181;DHT22;58963;50.438;30.594;2022-09-27T00:53:33;11.70;99.90
46181;DHT22;58963;50.438;30.594;2022-09-27T00:59:07;11.80;99.90
46181;DHT22;58963;50.438;30.594;2022-09-27T01:04:29;11.70;99.90
46181;DHT22;58963;50.438;30.594;2022-09-27T01:09:48;11.80;99.90
46181;DHT22;58963;50.438;30.594;2022-09-27T01:32:24;11.80;99.90
46181;DHT22;58963;50.438;30.594;2022-09-27T01:43:32;11.80;99.90
46181;DHT22;58963;50.438;30.594;2022-09-27T01:48:59;11.80;99.90
46181;DHT22;58963;50.438;30.594;2022-09-27T01:54:26;11.80;99.90
46181;DHT22;58963;50.438;30.594;2022-09-27T01:59:52;11.70;99.90
46181;DHT22;58963;50.438;30.594;2022-09-27T02:05:14;11.70;99.90
46181;DHT22;58963;50.438;30.594;2022-09-27T02:10:41;11.80;99.90
46181;DHT22;58963;50.438;30.594;2022-09-27T02:16:19;11.80;99.90
46181;DHT22;58963;50.438;30.594;2022-09-27T02:33:04;11.80;99.90
46181;DHT22;58963;50.438;30.594;2022-09-27T02:38:23;11.80;99.90
46181;DHT22;58963;50.438;30.594;2022-09-27T02:43:48;11.80;99.90
46181;DHT22;58963;50.438;30.594;2022-09-27T03:00:29;11.80;99.90
46181;DHT22;58963;50.438;30.594;2022-09-27T03:06:03;11.80;99.90
46181;DHT22;58963;50.438;30.594;2022-09-27T03:11:23;11.80;99.90
46181;DHT22;58963;50.438;30.594;2022-09-27T03:16:42;11.80;99.90
46181;DHT22;58963;50.438;30.594;2022-09-27T03:22:02;11.90;99.90
46181;DHT22;58963;50.438;30.594;2022-09-27T03:27:21;11.90;99.90
46181;DHT22;58963;50.438;30.594;2022-09-27T03:32:44;11.90;99.90
46181;DHT22;58963;50.438;30.594;2022-09-27T03:38:03;11.90;99.90
46181;DHT22;58963;50.438;30.594;2022-09-27T03:43:22;11.90;99.90
46181;DHT22;58963;50.438;30.594;2022-09-27T03:48:42;11.90;99.90
46181;DHT22;58963;50.438;30.594;2022-09-27T03:54:02;11.90;99.90
46181;DHT22;58963;50.438;30.594;2022-09-27T03:59:21;11.90;99.90
46181;DHT22;58963;50.438;30.594;2022-09-27T04:04:40;11.80;99.90
46181;DHT22;58963;50.438;30.594;2022-09-27T04:09:59;11.80;99.90
46181;DHT22;58963;50.438;30.594;2022-09-27T04:15:18;11.90;99.90
46181;DHT22;58963;50.438;30.594;2022-09-27T04:20:39;11.80;99.90
46181;DHT22;58963;50.438;30.594;2022-09-27T04:25:59;11.90;99.90
46181;DHT22;58963;50.438;30.594;2022-09-27T04:31:18;11.90;99.90
46181;DHT22;58963;50.438;30.594;2022-09-27T04:36:38;11.90;99.90
46181;DHT22;58963;50.438;30.594;2022-09-27T04:41:57;11.90;99.90
46181;DHT22;58963;50.438;30.594;2022-09-27T04:47:16;12.00;99.90
46181;DHT22;58963;50.438;30.594;2022-09-27T04:52:37;12.00;99.90
46181;DHT22;58963;50.438;30.594;2022-09-27T04:57:56;12.00;99.90
46181;DHT22;58963;50.438;30.594;2022-09-27T05:03:15;12.00;99.90
46181;DHT22;58963;50.438;30.594;2022-09-27T05:08:35;12.00;99.90
46181;DHT22;58963;50.438;30.594;2022-09-27T05:13:54;12.10;99.90
46181;DHT22;58963;50.438;30.594;2022-09-27T05:19:14;12.10;99.90
46181;DHT22;58963;50.438;30.594;2022-09-27T05:24:33;12.20;99.90
46181;DHT22;58963;50.438;30.594;2022-09-27T05:29:52;12.30;99.90
46181;DHT22;58963;50.438;30.594;2022-09-27T05:35:12;12.30;99.90
46181;DHT22;58963;50.438;30.594;2022-09-27T05:40:32;12.40;99.90
46181;DHT22;58963;50.438;30.594;2022-09-27T05:45:51;12.50;99.90
46181;DHT22;58963;50.438;30.594;2022-09-27T05:51:11;12.50;99.90
46181;DHT22;58963;50.438;30.594;2022-09-27T05:56:31;12.50;99.90
46181;DHT22;58963;50.438;30.594;2022-09-27T06:01:50;12.50;99.90
46181;DHT22;58963;50.438;30.594;2022-09-27T06:07:10;12.60;99.90
46181;DHT22;58963;50.438;30.594;2022-09-27T06:12:30;12.70;99.90
46181;DHT22;58963;50.438;30.594;2022-09-27T06:17:49;12.70;99.90
46181;DHT22;58963;50.438;30.594;2022-09-27T06:23:14;12.70;99.90
46181;DHT22;58963;50.438;30.594;2022-09-27T06:28:35;12.70;99.90
46181;DHT22;58963;50.438;30.594;2022-09-27T06:33:55;12.70;99.90
46181;DHT22;58963;50.438;30.594;2022-09-27T06:39:15;12.60;99.90
46181;DHT22;58963;50.438;30.594;2022-09-27T06:44:36;12.70;99.90
46181;DHT22;58963;50.438;30.594;2022-09-27T06:49:55;12.60;99.90
46181;DHT22;58963;50.438;30.594;2022-09-27T06:55:28;12.60;99.90
46181;DHT22;58963;50.438;30.594;2022-09-27T07:00:51;12.60;99.90
46181;DHT22;58963;50.438;30.594;2022-09-27T07:06:19;12.70;99.90
46181;DHT22;58963;50.438;30.594;2022-09-27T07:11:40;12.70;99.90
46181;DHT22;58963;50.438;30.594;2022-09-27T07:17:04;12.90;99.90
46181;DHT22;58963;50.438;30.594;2022-09-27T07:22:23;12.80;99.90
46181;DHT22;58963;50.438;30.594;2022-09-27T07:27:42;12.80;99.90
46181;DHT22;58963;50.438;30.594;2022-09-27T07:33:03;12.90;99.90
46181;DHT22;58963;50.438;30.594;2022-09-27T07:38:23;12.90;99.90
46181;DHT22;58963;50.438;30.594;2022-09-27T07:43:46;12.80;99.90
46181;DHT22;58963;50.438;30.594;2022-09-27T07:49:05;12.80;99.90
46181;DHT22;58963;50.438;30.594;2022-09-27T07:54:25;12.90;99.90
46181;DHT22;58963;50.438;30.594;2022-09-27T07:59:44;12.90;99.90
46181;DHT22;58963;50.438;30.594;2022-09-27T08:05:04;12.90;99.90
46181;DHT22;58963;50.438;30.594;2022-09-27T08:10:23;13.00;99.90
46181;DHT22;58963;50.438;30.594;2022-09-27T08:15:49;13.10;99.90
46181;DHT22;58963;50.438;30.594;2022-09-27T08:21:10;13.10;99.90
46181;DHT22;58963;50.438;30.594;2022-09-27T08:26:29;13.10;99.90
46181;DHT22;58963;50.438;30.594;2022-09-27T08:31:52;13.10;99.90
46181;DHT22;58963;50.438;30.594;2022-09-27T08:37:12;13.20;99.90
46181;DHT22;58963;50.438;30.594;2022-09-27T08:42:58;13.20;99.90
46181;DHT22;58963;50.438;30.594;2022-09-27T08:48:18;13.20;99.90
46181;DHT22;58963;50.438;30.594;2022-09-27T08:53:50;13.20;99.90
46181;DHT22;58963;50.438;30.594;2022-09-27T08:59:29;13.20;99.90
46181;DHT22;58963;50.438;30.594;2022-09-27T09:04:53;13.20;99.90
46181;DHT22;58963;50.438;30.594;2022-09-27T09:10:27;13.40;99.90
46181;DHT22;58963;50.438;30.594;2022-09-27T09:16:16;13.60;99.90
46181;DHT22;58963;50.438;30.594;2022-09-27T09:33:12;14.10;99.90
46181;DHT22;58963;50.438;30.594;2022-09-27T09:44:04;14.10;99.90
46181;DHT22;58963;50.438;30.594;2022-09-27T09:49:37;14.20;99.90
46181;DHT22;58963;50.438;30.594;2022-09-27T09:55:11;14.10;99.90
46181;DHT22;58963;50.438;30.594;2022-09-27T10:00:31;14.10;99.90
46181;DHT22;58963;50.438;30.594;2022-09-27T10:06:00;14.10;99.90
46181;DHT22;58963;50.438;30.594;2022-09-27T10:11:27;14.10;99.90
46181;DHT22;58963;50.438;30.594;2022-09-27T10:16:56;14.20;99.90
46181;DHT22;58963;50.438;30.594;2022-09-27T10:27:47;14.30;99.90
46181;DHT22;58963;50.438;30.594;2022-09-27T10:33:15;14.40;99.90
46181;DHT22;58963;50.438;30.594;2022-09-27T10:38:37;14.40;99.90
46181;DHT22;58963;50.438;30.594;2022-09-27T10:43:59;14.40;99.90
46181;DHT22;58963;50.438;30.594;2022-09-27T10:49:38;14.40;99.90
46181;DHT22;58963;50.438;30.594;2022-09-27T10:55:24;14.50;99.90
46181;DHT22;58963;50.438;30.594;2022-09-27T11:07:12;14.50;99.90
46181;DHT22;58963;50.438;30.594;2022-09-27T11:12:33;14.50;99.90
46181;DHT22;58963;50.438;30.594;2022-09-27T11:18:14;14.50;99.90
46181;DHT22;58963;50.438;30.594;2022-09-27T11:23:49;14.60;99.90
46181;DHT22;58963;50.438;30.594;2022-09-27T11:41:04;14.90;99.90
46181;DHT22;58963;50.438;30.594;2022-09-27T11:46:34;15.00;99.90
46181;DHT22;58963;50.438;30.594;2022-09-27T12:08:53;15.40;99.90
46181;DHT22;58963;50.438;30.594;2022-09-27T12:14:39;15.30;99.90
46181;DHT22;58963;50.438;30.594;2022-09-27T12:20:03;15.40;99.90
46181;DHT22;58963;50.438;30.594;2022-09-27T12:25:28;15.50;99.90
46181;DHT22;58963;50.438;30.594;2022-09-27T12:30:53;15.50;99.90
46181;DHT22;58963;50.438;30.594;2022-09-27T12:36:15;15.50;99.90
46181;DHT22;58963;50.438;30.594;2022-09-27T12:41:45;15.40;99.90
46181;DHT22;58963;50.438;30.594;2022-09-27T12:52:35;15.00;99.90
46181;DHT22;58963;50.438;30.594;2022-09-27T12:58:05;14.90;99.90
46181;DHT22;58963;50.438;30.594;2022-09-27T13:04:01;14.80;99.90
46181;DHT22;58963;50.438;30.594;2022-09-27T13:15:05;14.80;99.90
46181;DHT22;58963;50.438;30.594;2022-09-27T13:25:59;14.70;99.90
46181;DHT22;58963;50.438;30.594;2022-09-27T13:48:45;14.90;99.90
46181;DHT22;58963;50.438;30.594;2022-09-27T13:59:53;14.90;99.90
46181;DHT22;58963;50.438;30.594;2022-09-27T14:05:20;15.00;99.90
46181;DHT22;58963;50.438;30.594;2022-09-27T14:10:42;15.00;99.90
46181;DHT22;58963;50.438;30.594;2022-09-27T14:16:03;15.00;99.90
46181;DHT22;58963;50.438;30.594;2022-09-27T14:21:32;14.90;99.90
46181;DHT22;58963;50.438;30.594;2022-09-27T14:32:49;15.10;99.90
46181;DHT22;58963;50.438;30.594;2022-09-27T14:38:11;15.10;99.90
46181;DHT22;58963;50.438;30.594;2022-09-27T14:43:32;15.00;99.90
46181;DHT22;58963;50.438;30.594;2022-09-27T14:48:52;14.90;99.90
46181;DHT22;58963;50.438;30.594;2022-09-27T14:54:23;14.80;99.90
46181;DHT22;58963;50.438;30.594;2022-09-27T14:59:44;14.70;99.90
46181;DHT22;58963;50.438;30.594;2022-09-27T15:05:12;14.70;99.90
46181;DHT22;58963;50.438;30.594;2022-09-27T15:10:34;14.60;99.90
46181;DHT22;58963;50.438;30.594;2022-09-27T15:15:55;14.60;99.90
46181;DHT22;58963;50.438;30.594;2022-09-27T15:21:35;14.50;99.90
46181;DHT22;58963;50.438;30.594;2022-09-27T15:26:55;14.40;99.90
46181;DHT22;58963;50.438;30.594;2022-09-27T15:32:18;14.30;99.90
46181;DHT22;58963;50.438;30.594;2022-09-27T15:38:09;14.10;99.90
46181;DHT22;58963;50.438;30.594;2022-09-27T15:43:36;13.90;99.90
46181;DHT22;58963;50.438;30.594;2022-09-27T15:54:36;13.60;99.90
46181;DHT22;58963;50.438;30.594;2022-09-27T15:59:55;13.50;99.90
46181;DHT22;58963;50.438;30.594;2022-09-27T16:05:15;13.50;99.90
46181;DHT22;58963;50.438;30.594;2022-09-27T16:10:37;13.40;99.90
46181;DHT22;58963;50.438;30.594;2022-09-27T16:15:57;13.40;99.90
46181;DHT22;58963;50.438;30.594;2022-09-27T16:21:16;13.40;99.90
46181;DHT22;58963;50.438;30.594;2022-09-27T16:26:37;13.40;99.90
46181;DHT22;58963;50.438;30.594;2022-09-27T16:31:56;13.40;99.90
46181;DHT22;58963;50.438;30.594;2022-09-27T16:37:15;13.50;99.90
46181;DHT22;58963;50.438;30.594;2022-09-27T16:42:36;13.50;99.90
46181;DHT22;58963;50.438;30.594;2022-09-27T16:47:55;13.50;99.90
46181;DHT22;58963;50.438;30.594;2022-09-27T16:53:15;13.50;99.90
46181;DHT22;58963;50.438;30.594;2022-09-27T16:58:37;13.50;99.90
46181;DHT22;58963;50.438;30.594;2022-09-27T17:03:57;13.50;99.90
46181;DHT22;58963;50.438;30.594;2022-09-27T17:09:20;13.40;99.90
46181;DHT22;58963;50.438;30.594;2022-09-27T17:14:40;13.30;99.90
46181;DHT22;58963;50.438;30.594;2022-09-27T17:20:26;13.20;99.90
46181;DHT22;58963;50.438;30.594;2022-09-27T17:25:45;13.20;99.90
46181;DHT22;58963;50.438;30.594;2022-09-27T17:31:08;13.20;99.90
46181;DHT22;58963;50.438;30.594;2022-09-27T17:36:29;13.30;99.90
46181;DHT22;58963;50.438;30.594;2022-09-27T17:41:52;13.30;99.90
46181;DHT22;58963;50.438;30.594;2022-09-27T17:47:12;13.30;99.90
46181;DHT22;58963;50.438;30.594;2022-09-27T17:52:51;13.30;99.90
46181;DHT22;58963;50.438;30.594;2022-09-27T17:58:11;13.40;99.90
46181;DHT22;58963;50.438;30.594;2022-09-27T18:09:37;13.50;99.90
46181;DHT22;58963;50.438;30.594;2022-09-27T18:14:57;13.50;99.90
46181;DHT22;58963;50.438;30.594;2022-09-27T18:20:20;13.50;99.90
46181;DHT22;58963;50.438;30.594;2022-09-27T18:25:39;13.50;99.90
46181;DHT22;58963;50.438;30.594;2022-09-27T18:31:03;13.50;99.90
46181;DHT22;58963;50.438;30.594;2022-09-27T18:36:33;13.60;99.90
46181;DHT22;58963;50.438;30.594;2022-09-27T18:41:52;13.60;99.90
46181;DHT22;58963;50.438;30.594;2022-09-27T18:47:19;13.60;99.90
46181;DHT22;58963;50.438;30.594;2022-09-27T18:52:38;13.60;99.90
46181;DHT22;58963;50.438;30.594;2022-09-27T18:57:57;13.60;99.90
46181;DHT22;58963;50.438;30.594;2022-09-27T19:03:17;13.60;99.90
46181;DHT22;58963;50.438;30.594;2022-09-27T19:08:36;13.50;99.90
46181;DHT22;58963;50.438;30.594;2022-09-27T19:13:59;13.50;99.90
46181;DHT22;58963;50.438;30.594;2022-09-27T19:19:19;13.50;99.90
46181;DHT22;58963;50.438;30.594;2022-09-27T19:24:38;13.50;99.90
46181;DHT22;58963;50.438;30.594;2022-09-27T19:29:57;13.50;99.90
46181;DHT22;58963;50.438;30.594;2022-09-27T19:35:17;13.50;99.90
46181;DHT22;58963;50.438;30.594;2022-09-27T19:40:36;13.50;99.90
46181;DHT22;58963;50.438;30.594;2022-09-27T19:46:03;13.40;99.90
46181;DHT22;58963;50.438;30.594;2022-09-27T19:51:25;13.30;99.90
46181;DHT22;58963;50.438;30.594;2022-09-27T19:56:44;13.20;99.90
46181;DHT22;58963;50.438;30.594;2022-09-27T20:02:04;13.20;99.90
46181;DHT22;58963;50.438;30.594;2022-09-27T20:07:34;13.20;99.90
46181;DHT22;58963;50.438;30.594;2022-09-27T20:13:36;13.30;99.90
46181;DHT22;58963;50.438;30.594;2022-09-27T20:18:58;13.40;99.90
46181;DHT22;58963;50.438;30.594;2022-09-27T20:24:38;13.50;99.90
46181;DHT22;58963;50.438;30.594;2022-09-27T20:30:18;13.40;99.90
46181;DHT22;58963;50.438;30.594;2022-09-27T20:35:52;13.30;99.90
46181;DHT22;58963;50.438;30.594;2022-09-27T20:41:24;13.30;99.90
46181;DHT22;58963;50.438;30.594;2022-09-27T20:46:44;13.30;99.90
46181;DHT22;58963;50.438;30.594;2022-09-27T20:52:04;13.30;99.90
46181;DHT22;58963;50.438;30.594;2022-09-27T20:57:24;13.50;99.90
46181;DHT22;58963;50.438;30.594;2022-09-27T21:02:45;13.50;99.90
46181;DHT22;58963;50.438;30.594;2022-09-27T21:08:05;13.50;99.90
46181;DHT22;58963;50.438;30.594;2022-09-27T21:13:25;13.60;99.90
46181;DHT22;58963;50.438;30.594;2022-09-27T21:18:44;13.60;99.90
46181;DHT22;58963;50.438;30.594;2022-09-27T21:24:06;13.50;99.90
46181;DHT22;58963;50.438;30.594;2022-09-27T21:29:26;13.50;99.90
46181;DHT22;58963;50.438;30.594;2022-09-27T21:34:47;13.50;99.90
46181;DHT22;58963;50.438;30.594;2022-09-27T21:40:07;13.50;99.90
46181;DHT22;58963;50.438;30.594;2022-09-27T21:45:26;13.60;99.90
46181;DHT22;58963;50.438;30.594;2022-09-27T21:50:49;13.50;99.90
46181;DHT22;58963;50.438;30.594;2022-09-27T21:56:09;13.50;99.90
46181;DHT22;58963;50.438;30.594;2022-09-27T22:01:31;13.50;99.90
46181;DHT22;58963;50.438;30.594;2022-09-27T22:06:53;13.50;99.90
46181;DHT22;58963;50.438;30.594;2022-09-27T22:12:13;13.40;99.90
46181;DHT22;58963;50.438;30.594;2022-09-27T22:17:34;13.50;99.90
46181;DHT22;58963;50.438;30.594;2022-09-27T22:22:59;13.40;99.90
46181;DHT22;58963;50.438;30.594;2022-09-27T22:28:22;13.30;99.90
46181;DHT22;58963;50.438;30.594;2022-09-27T22:33:42;13.40;99.90
46181;DHT22;58963;50.438;30.594;2022-09-27T22:39:02;13.40;99.90
46181;DHT22;58963;50.438;30.594;2022-09-27T22:44:22;13.40;99.90
46181;DHT22;58963;50.438;30.594;2022-09-27T22:49:41;13.40;99.90
46181;DHT22;58963;50.438;30.594;2022-09-27T22:55:00;13.40;99.90
46181;DHT22;58963;50.438;30.594;2022-09-27T23:00:26;13.40;99.90
46181;DHT22;58963;50.438;30.594;2022-09-27T23:05:47;13.40;99.90
46181;DHT22;58963;50.438;30.594;2022-09-27T23:11:08;13.40;99.90
46181;DHT22;58963;50.438;30.594;2022-09-27T23:16:31;13.40;99.90
46181;DHT22;58963;50.438;30.594;2022-09-27T23:21:50;13.30;99.90
46181;DHT22;58963;50.438;30.594;2022-09-27T23:27:10;13.30;99.90
46181;DHT22;58963;50.438;30.594;2022-09-27T23:32:52;13.30;99.90
46181;DHT22;58963;50.438;30.594;2022-09-27T23:38:12;13.30;99.90
46181;DHT22;58963;50.438;30.594;2022-09-27T23:43:32;13.30;99.90
46181;DHT22;58963;50.438;30.594;2022-09-27T23:48:51;13.30;99.90
46181;DHT22;58963;50.438;30.594;2022-09-27T23:54:11;13.30;99.90
46181;DHT22;58963;50.438;30.594;2022-09-27T23:59:30;13.30;99.90
